createdAt,value
2022-10-22T00:01:39.982Z,19.50
2022-10-22T00:04:09.810Z,17.98
2022-10-22T00:09:10.592Z,18.45
2022-10-22T00:11:58.133Z,15.02
2022-10-22T00:14:44.810Z,16.45
2022-10-22T00:17:14.791Z,15.18
2022-10-22T00:19:44.580Z,14.27
2022-10-22T00:25:19.769Z,14.23
2022-10-22T00:30:36.366Z,15.05
2022-10-22T00:33:23.506Z,15.63
2022-10-22T00:36:10.238Z,14.57
2022-10-22T00:38:57.542Z,14.35
2022-10-22T00:41:28.625Z,13.77
2022-10-22T00:58:43.530Z,12.80
2022-10-22T01:01:18.318Z,12.88
2022-10-22T01:04:04.992Z,9.98
2022-10-22T01:06:52.925Z,12.32
2022-10-22T01:09:49.428Z,12.20
2022-10-22T01:12:28.328Z,16.23
2022-10-22T01:15:28.562Z,12.88
2022-10-22T01:18:21.542Z,10.88
2022-10-22T01:21:34.583Z,12.05
2022-10-22T01:24:30.926Z,14.55
2022-10-22T01:27:48.568Z,11.00
2022-10-22T01:30:38.741Z,11.68
2022-10-22T01:33:13.606Z,11.90
2022-10-22T01:35:47.037Z,14.57
2022-10-22T01:38:39.025Z,11.82
2022-10-22T01:41:09.727Z,10.90
2022-10-22T01:43:56.589Z,10.82
2022-10-22T01:46:47.032Z,14.32
2022-10-22T01:49:41.735Z,12.77
2022-10-22T01:52:22.263Z,11.27
2022-10-22T01:55:01.205Z,11.77
2022-10-22T01:57:43.765Z,10.95
2022-10-22T02:00:34.275Z,9.68
2022-10-22T02:03:27.980Z,12.23
2022-10-22T02:06:01.760Z,10.13
2022-10-22T02:08:35.723Z,16.65
2022-10-22T02:11:07.153Z,22.92
2022-10-22T02:13:42.195Z,11.98
2022-10-22T02:16:35.547Z,10.98
2022-10-22T02:19:16.137Z,10.70
2022-10-22T02:22:04.331Z,12.02
2022-10-22T02:24:36.942Z,9.77
2022-10-22T02:27:36.741Z,9.63
2022-10-22T02:30:28.779Z,10.45
2022-10-22T02:33:06.222Z,10.82
2022-10-22T02:35:46.476Z,10.80
2022-10-22T02:38:21.284Z,9.80
2022-10-22T02:41:09.379Z,11.05
2022-10-22T02:43:44.367Z,9.85
2022-10-22T02:46:31.840Z,10.10
2022-10-22T02:49:19.358Z,8.52
2022-10-22T02:51:57.381Z,9.52
2022-10-22T02:54:27.368Z,9.95
2022-10-22T02:56:57.687Z,10.55
2022-10-22T02:59:53.705Z,9.25
2022-10-22T03:02:43.354Z,11.20
2022-10-22T03:05:14.300Z,9.07
2022-10-22T03:08:08.427Z,10.75
2022-10-22T03:10:38.572Z,9.43
2022-10-22T03:13:27.431Z,9.60
2022-10-22T03:16:15.828Z,9.95
2022-10-22T03:19:04.804Z,11.27
2022-10-22T03:21:56.979Z,10.13
2022-10-22T03:24:37.759Z,9.30
2022-10-22T03:27:08.441Z,9.30
2022-10-22T03:29:41.371Z,9.38
2022-10-22T03:32:31.664Z,9.18
2022-10-22T03:35:04.044Z,8.20
2022-10-22T03:37:52.358Z,9.95
2022-10-22T03:40:24.625Z,5.68
2022-10-22T03:42:54.789Z,9.43
2022-10-22T03:45:41.776Z,10.43
2022-10-22T03:48:11.452Z,8.38
2022-10-22T03:50:41.509Z,7.25
2022-10-22T03:53:29.771Z,7.78
2022-10-22T03:56:01.384Z,9.55
2022-10-22T03:58:48.376Z,9.80
2022-10-22T04:01:18.659Z,7.90
2022-10-22T04:06:52.994Z,7.35
2022-10-22T04:09:22.798Z,6.45
2022-10-22T04:11:56.740Z,8.55
2022-10-22T04:29:30.871Z,8.75
2022-10-22T04:32:00.869Z,10.90
2022-10-22T04:34:48.428Z,10.38
2022-10-22T04:37:35.847Z,9.02
2022-10-22T04:40:06.842Z,10.95
2022-10-22T04:42:54.006Z,9.10
2022-10-22T04:45:42.532Z,9.63
2022-10-22T04:48:12.595Z,9.30
2022-10-22T04:50:43.065Z,10.45
2022-10-22T04:53:30.678Z,10.73
2022-10-22T04:56:10.198Z,10.45
2022-10-22T04:58:41.378Z,10.02
2022-10-22T05:01:32.217Z,10.25
2022-10-22T05:04:22.071Z,8.43
2022-10-22T05:06:52.614Z,8.98
2022-10-22T05:09:40.623Z,8.88
2022-10-22T05:12:35.284Z,9.93
2022-10-22T05:15:05.301Z,11.65
2022-10-22T05:17:42.320Z,8.55
2022-10-22T05:20:14.398Z,10.35
2022-10-22T05:25:23.190Z,11.15
2022-10-22T05:28:04.562Z,12.30
2022-10-22T05:30:36.426Z,9.05
2022-10-22T05:33:08.289Z,11.13
2022-10-22T05:35:39.188Z,11.27
2022-10-22T05:38:11.917Z,12.38
2022-10-22T05:40:41.844Z,8.45
2022-10-22T05:43:13.014Z,11.43
2022-10-22T05:45:49.452Z,8.20
2022-10-22T05:48:23.562Z,9.38
2022-10-22T05:50:55.467Z,9.77
2022-10-22T05:53:31.760Z,10.68
2022-10-22T05:56:04.165Z,11.00
2022-10-22T05:58:36.259Z,12.60
2022-10-22T06:01:08.889Z,13.95
2022-10-22T06:03:43.711Z,11.85
2022-10-22T06:06:30.057Z,10.43
2022-10-22T06:09:06.808Z,12.27
2022-10-22T06:11:37.085Z,9.80
2022-10-22T06:14:08.188Z,10.90
2022-10-22T06:16:40.974Z,10.90
2022-10-22T06:19:13.027Z,11.40
2022-10-22T06:21:43.300Z,11.82
2022-10-22T06:24:15.397Z,10.70
2022-10-22T06:26:46.126Z,10.65
2022-10-22T06:29:16.633Z,8.82
2022-10-22T06:31:47.248Z,9.82
2022-10-22T06:34:19.798Z,10.90
2022-10-22T06:36:51.910Z,10.80
2022-10-22T06:39:22.431Z,9.40
2022-10-22T06:41:53.415Z,8.60
2022-10-22T06:44:25.787Z,9.15
2022-10-22T06:46:58.548Z,7.32
2022-10-22T06:49:35.775Z,9.85
2022-10-22T06:52:15.178Z,6.82
2022-10-22T06:54:45.700Z,9.13
2022-10-22T06:57:17.000Z,9.15
2022-10-22T06:59:48.850Z,11.18
2022-10-22T07:02:18.921Z,7.82
2022-10-22T07:07:28.398Z,5.43
2022-10-22T07:09:59.293Z,7.00
2022-10-22T07:12:35.391Z,7.18
2022-10-22T07:15:11.614Z,7.05
2022-10-22T07:17:46.183Z,7.28
2022-10-22T07:20:24.253Z,8.45
2022-10-22T07:22:57.656Z,6.80
2022-10-22T07:25:28.207Z,8.30
2022-10-22T07:28:02.313Z,6.35
2022-10-22T07:30:34.330Z,4.65
2022-10-22T07:33:05.695Z,8.18
2022-10-22T07:35:38.199Z,7.65
2022-10-22T07:53:01.464Z,7.82
2022-10-22T07:55:31.764Z,5.78
2022-10-22T07:58:03.273Z,7.30
2022-10-22T08:00:33.466Z,6.18
2022-10-22T08:03:05.580Z,4.78
2022-10-22T08:05:50.118Z,6.72
2022-10-22T08:08:39.849Z,10.32
2022-10-22T08:11:28.459Z,10.75
2022-10-22T08:14:16.350Z,9.18
2022-10-22T08:17:10.851Z,6.88
2022-10-22T08:20:02.326Z,6.22
2022-10-22T08:22:51.490Z,6.28
2022-10-22T08:25:43.625Z,7.60
2022-10-22T08:28:37.775Z,4.93
2022-10-22T08:31:30.840Z,7.53
2022-10-22T08:34:19.236Z,7.72
2022-10-22T08:37:08.902Z,7.85
2022-10-22T08:39:57.266Z,5.43
2022-10-22T08:43:02.112Z,7.90
2022-10-22T08:45:58.318Z,7.40
2022-10-22T08:48:49.866Z,5.97
2022-10-22T08:51:40.770Z,7.55
2022-10-22T08:54:39.057Z,7.97
2022-10-22T08:57:55.981Z,5.47
2022-10-22T09:00:48.246Z,8.60
2022-10-22T09:03:47.491Z,4.75
2022-10-22T09:09:29.506Z,6.07
2022-10-22T09:12:20.562Z,5.97
2022-10-22T09:15:16.944Z,5.53
2022-10-22T09:18:24.230Z,7.43
2022-10-22T09:21:22.516Z,6.97
2022-10-22T09:24:15.503Z,4.95
2022-10-22T09:27:09.245Z,3.85
2022-10-22T09:29:57.425Z,5.72
2022-10-22T09:32:46.947Z,5.95
2022-10-22T09:35:37.243Z,3.88
2022-10-22T09:38:29.037Z,4.25
2022-10-22T09:41:18.108Z,6.97
2022-10-22T09:44:10.610Z,7.20
2022-10-22T09:46:58.489Z,6.25
2022-10-22T09:49:48.696Z,5.85
2022-10-22T09:52:36.639Z,3.78
2022-10-22T09:55:26.915Z,5.88
2022-10-22T09:58:16.173Z,8.73
2022-10-22T10:01:04.607Z,4.88
2022-10-22T10:03:52.480Z,3.67
2022-10-22T10:06:44.116Z,5.85
2022-10-22T10:09:37.133Z,3.83
2022-10-22T10:12:37.798Z,5.20
2022-10-22T10:15:30.973Z,5.75
2022-10-22T10:18:27.344Z,8.27
2022-10-22T10:21:25.758Z,7.70
2022-10-22T10:24:24.151Z,4.30
2022-10-22T10:27:14.903Z,4.65
2022-10-22T10:30:07.422Z,7.10
2022-10-22T10:33:12.559Z,5.50
2022-10-22T10:36:06.006Z,6.00
2022-10-22T10:39:02.077Z,4.90
2022-10-22T10:42:01.097Z,4.97
2022-10-22T10:45:09.810Z,3.63
2022-10-22T10:48:10.056Z,6.35
2022-10-22T10:51:07.318Z,5.65
2022-10-22T10:57:46.705Z,3.20
2022-10-22T11:00:42.600Z,8.68
2022-10-22T11:04:14.178Z,6.80
2022-10-22T11:07:11.517Z,3.80
2022-10-22T11:10:19.487Z,4.13
2022-10-22T11:32:33.469Z,5.47
2022-10-22T11:35:24.890Z,4.50
2022-10-22T11:38:17.957Z,6.32
2022-10-22T11:41:11.676Z,7.72
2022-10-22T11:44:09.888Z,5.30
2022-10-22T11:47:00.621Z,7.20
2022-10-22T11:49:59.897Z,4.80
2022-10-22T11:53:03.271Z,4.47
2022-10-22T11:55:53.012Z,3.78
2022-10-22T11:58:44.368Z,8.50
2022-10-22T12:01:43.834Z,5.45
2022-10-22T12:04:46.121Z,7.75
2022-10-22T12:07:52.144Z,7.55
2022-10-22T12:10:58.870Z,5.25
2022-10-22T12:14:19.325Z,7.00
2022-10-22T12:17:12.397Z,4.47
2022-10-22T12:20:04.938Z,7.30
2022-10-22T12:22:54.840Z,9.00
2022-10-22T12:25:42.589Z,6.05
2022-10-22T12:28:30.447Z,3.63
2022-10-22T12:31:18.518Z,2.85
2022-10-22T12:34:08.489Z,3.78
2022-10-22T12:36:57.287Z,6.63
2022-10-22T12:39:47.373Z,6.35
2022-10-22T12:42:35.440Z,3.63
2022-10-22T12:48:18.815Z,8.60
2022-10-22T12:51:10.018Z,5.25
2022-10-22T12:54:02.676Z,6.32
2022-10-22T12:56:54.811Z,6.38
2022-10-22T12:59:49.662Z,8.40
2022-10-22T13:02:38.663Z,6.05
2022-10-22T13:08:22.930Z,3.97
2022-10-22T13:11:12.716Z,2.85
2022-10-22T13:14:09.557Z,4.45
2022-10-22T13:17:09.469Z,3.63
2022-10-22T13:20:05.712Z,7.95
2022-10-22T13:23:01.455Z,6.07
2022-10-22T13:26:00.537Z,6.22
2022-10-22T13:28:55.881Z,7.38
2022-10-22T13:31:51.811Z,6.53
2022-10-22T13:34:40.619Z,5.47
2022-10-22T13:37:32.599Z,7.40
2022-10-22T13:40:23.790Z,9.30
2022-10-22T13:43:12.701Z,6.10
2022-10-22T13:46:02.323Z,6.18
2022-10-22T13:48:54.631Z,3.88
2022-10-22T13:51:43.574Z,5.95
2022-10-22T13:54:31.789Z,4.97
2022-10-22T14:00:09.287Z,5.45
2022-10-22T14:03:01.728Z,6.18
2022-10-22T14:05:52.209Z,6.90
2022-10-22T14:08:41.545Z,3.80
2022-10-22T14:11:31.532Z,8.38
2022-10-22T14:14:19.684Z,6.22
2022-10-22T14:17:11.290Z,7.20
2022-10-22T14:19:59.250Z,7.07
2022-10-22T14:22:49.302Z,7.45
2022-10-22T14:25:37.392Z,9.20
2022-10-22T14:31:14.460Z,6.18
2022-10-22T14:34:02.775Z,8.23
2022-10-22T14:36:52.169Z,7.85
2022-10-22T14:39:41.824Z,7.80
2022-10-22T14:42:31.323Z,6.40
2022-10-22T14:45:21.381Z,7.60
2022-10-22T14:48:09.227Z,6.30
2022-10-22T14:50:57.965Z,6.72
2022-10-22T14:56:34.871Z,5.68
2022-10-22T14:59:22.951Z,7.28
